Allenhurst, Georgia
Current Conditions -  °F | °C
As of 10:24 AM on Monday 22 Dec 2014 (Local Time) from KLHW Reporting Station
Haze Haze  
Wind Chill: 10°   Ceiling: 300
Heat Index: 10°   Visibility: 3mi
Dew Point:   Wind: 8mph
Humidity: 94%   Direction: 40°NE
Pressure: 30.03"   Gusts: NA
Location:  31.78°N, 81.61°W
Report Text: KLHW 221524Z AUTO 04007KT 3SM BR OVC003 10/09 A3003 RMK AO2 RAB1503E1520
Loading
Personal Weather Stations






























Interactive Weather Map New forecast layout! Learn more

10-Day Weather Forecast

Advertisements
Track Severe Weather on mobile